Time;durP1;ratioP1;P1;durP2;ratioP2;P2;SDS_P1;SDS_P2;PMS_P1;PMS_P2;Temp;Humidity;BMP_temperature;BMP_pressure;BME280_temperature;BME280_humidity;BME280_pressure;Samples;Min_cycle;Max_cycle;Signal;HPM_P1;HPM_P2
2020/12/08 00:00:19;;;;;;;2.53;2.30;;;21.60;46.80;;;;;;5012748;28;20231;-55
2020/12/08 00:02:45;;;;;;;2.63;2.43;;;21.60;47.00;;;;;;5011702;28;20239;-56
2020/12/08 00:05:14;;;;;;;4.73;2.63;;;21.50;47.00;;;;;;5017988;28;20242;-55
2020/12/08 00:07:40;;;;;;;2.67;2.30;;;21.40;47.10;;;;;;5023241;28;20234;-55
2020/12/08 00:10:07;;;;;;;2.70;2.50;;;21.40;47.20;;;;;;5022804;28;20285;-55
2020/12/08 00:12:33;;;;;;;3.50;2.40;;;21.30;48.00;;;;;;5016980;28;20234;-59
2020/12/08 00:14:59;;;;;;;2.23;2.03;;;21.30;48.00;;;;;;5027790;28;20230;-55
2020/12/08 00:17:26;;;;;;;2.40;2.20;;;21.20;47.50;;;;;;5028314;28;20280;-56
2020/12/08 00:19:52;;;;;;;3.30;2.70;;;21.20;47.50;;;;;;5026072;28;20574;-56
2020/12/08 00:22:18;;;;;;;2.40;2.20;;;21.10;47.50;;;;;;5028216;28;20278;-55
2020/12/08 00:24:45;;;;;;;2.53;2.33;;;21.00;47.40;;;;;;5026858;28;20242;-57
2020/12/08 00:27:12;;;;;;;2.73;2.53;;;21.00;47.60;;;;;;5027497;28;20686;-56
2020/12/08 00:29:39;;;;;;;2.40;2.20;;;20.90;47.70;;;;;;5026691;28;20241;-57
2020/12/08 00:32:06;;;;;;;2.47;2.27;;;20.90;47.70;;;;;;5029395;28;20231;-57
2020/12/08 00:34:32;;;;;;;3.00;2.27;;;20.80;47.80;;;;;;5025523;28;20746;-56
2020/12/08 00:36:59;;;;;;;2.47;2.23;;;20.80;47.90;;;;;;5029156;28;20239;-56
2020/12/08 00:39:25;;;;;;;2.60;2.40;;;20.70;48.00;;;;;;5025384;28;20231;-57
2020/12/08 00:41:51;;;;;;;2.40;2.20;;;20.60;48.00;;;;;;5029380;28;20234;-56
2020/12/08 00:44:18;;;;;;;2.90;2.60;;;20.60;48.10;;;;;;5023683;28;20242;-56
2020/12/08 00:46:52;;;;;;;2.40;2.20;;;20.60;48.30;;;;;;5025207;28;20215;-57
2020/12/08 00:49:19;;;;;;;2.80;2.53;;;20.50;48.30;;;;;;5024406;28;20234;-56
2020/12/08 00:51:45;;;;;;;2.27;2.07;;;20.40;48.30;;;;;;5025996;28;20911;-56
2020/12/08 00:54:12;;;;;;;2.13;1.97;;;20.40;48.50;;;;;;5026761;28;20230;-56
2020/12/08 00:56:42;;;;;;;3.27;2.60;;;20.40;48.60;;;;;;5023862;28;20238;-56
2020/12/08 00:59:13;;;;;;;3.07;2.27;;;20.30;48.60;;;;;;5028096;28;20237;-55
2020/12/08 01:01:41;;;;;;;2.20;2.00;;;20.20;48.60;;;;;;5022288;28;20231;-55
2020/12/08 01:04:08;;;;;;;2.47;2.27;;;20.20;48.70;;;;;;5028279;28;20235;-55
2020/12/08 01:06:41;;;;;;;2.73;2.47;;;20.20;48.80;;;;;;5022430;28;20245;-56
2020/12/08 01:09:08;;;;;;;2.20;2.00;;;20.10;48.90;;;;;;5026678;28;20222;-55
2020/12/08 01:11:41;;;;;;;2.67;2.47;;;20.00;48.90;;;;;;5024694;28;20233;-55
2020/12/08 01:14:12;;;;;;;2.33;2.00;;;20.00;49.00;;;;;;5026496;28;20235;-56
2020/12/08 01:16:48;;;;;;;2.60;2.40;;;19.90;49.10;;;;;;5023274;28;20230;-55
2020/12/08 01:19:15;;;;;;;3.20;2.20;;;19.90;49.10;;;;;;5026026;28;20597;-55
2020/12/08 01:21:41;;;;;;;2.93;2.20;;;19.90;49.20;;;;;;5024417;28;20257;-55
2020/12/08 01:24:07;;;;;;;3.07;2.43;;;19.90;49.30;;;;;;5027224;28;20240;-55
2020/12/08 01:26:33;;;;;;;2.67;2.40;;;19.80;49.30;;;;;;5024165;28;20813;-55
2020/12/08 01:28:59;;;;;;;2.37;2.13;;;19.80;49.40;;;;;;5028458;28;20799;-58
2020/12/08 01:31:32;;;;;;;2.37;2.17;;;19.70;49.40;;;;;;5024324;28;20245;-56
2020/12/08 01:33:59;;;;;;;2.40;2.20;;;19.70;49.50;;;;;;5026205;28;20246;-55
2020/12/08 01:36:26;;;;;;;2.80;2.20;;;19.70;49.50;;;;;;5024128;28;20280;-56
2020/12/08 01:38:52;;;;;;;3.20;2.10;;;19.60;49.60;;;;;;5027253;28;20222;-56
2020/12/08 01:41:18;;;;;;;2.37;2.17;;;19.60;49.60;;;;;;5024361;28;20226;-54
2020/12/08 01:43:52;;;;;;;2.57;2.37;;;19.50;49.70;;;;;;5024952;28;20760;-55
2020/12/08 01:46:24;;;;;;;2.60;2.30;;;19.50;49.80;;;;;;5027556;28;20234;-56
2020/12/08 01:48:52;;;;;;;2.60;2.40;;;19.40;49.80;;;;;;5022410;28;20569;-56
2020/12/08 01:51:19;;;;;;;2.50;2.10;;;19.50;49.90;;;;;;5027607;28;20227;-56
2020/12/08 01:53:48;;;;;;;2.53;2.33;;;19.40;49.90;;;;;;5022094;28;20246;-56
2020/12/08 01:56:15;;;;;;;2.33;2.13;;;19.30;49.90;;;;;;5030539;28;21078;-55
2020/12/08 01:58:42;;;;;;;2.37;2.07;;;19.30;50.00;;;;;;5028766;28;20609;-56
2020/12/08 02:01:11;;;;;;;4.17;2.57;;;19.30;50.10;;;;;;5032277;28;20231;-56
2020/12/08 02:03:38;;;;;;;2.63;2.10;;;19.20;50.10;;;;;;5025765;28;20249;-56
2020/12/08 02:06:05;;;;;;;2.77;2.30;;;19.20;50.10;;;;;;5031770;28;20238;-56
2020/12/08 02:08:34;;;;;;;3.67;2.57;;;19.20;50.20;;;;;;5025628;28;20233;-55
2020/12/08 02:11:00;;;;;;;3.47;2.70;;;19.20;50.30;;;;;;5030998;28;20288;-56
2020/12/08 02:13:27;;;;;;;2.70;2.27;;;19.10;50.30;;;;;;5026382;28;20238;-57
2020/12/08 02:15:53;;;;;;;2.63;2.43;;;19.10;50.40;;;;;;5031761;28;20235;-55
2020/12/08 02:18:20;;;;;;;2.97;2.50;;;19.00;50.40;;;;;;5026752;28;20297;-56
2020/12/08 02:20:52;;;;;;;2.80;2.50;;;19.00;50.50;;;;;;5032202;28;20227;-56
2020/12/08 02:23:18;;;;;;;2.90;2.47;;;19.00;50.50;;;;;;5025798;28;20237;-56
2020/12/08 02:25:53;;;;;;;2.30;2.10;;;19.00;50.60;;;;;;5032757;28;20296;-55
2020/12/08 02:28:20;;;;;;;3.73;2.67;;;18.90;50.60;;;;;;5027769;28;20470;-55
2020/12/08 02:30:46;;;;;;;2.33;2.10;;;18.90;50.60;;;;;;5031739;28;20223;-56
2020/12/08 02:33:13;;;;;;;2.70;2.27;;;18.90;50.70;;;;;;5031015;28;20231;-56
2020/12/08 02:35:39;;;;;;;2.77;2.10;;;18.80;50.70;;;;;;5028774;28;20574;-56
2020/12/08 02:38:05;;;;;;;2.93;2.53;;;18.80;50.70;;;;;;5031564;28;20222;-55
2020/12/08 02:40:31;;;;;;;2.23;2.03;;;18.80;50.80;;;;;;5026296;28;20226;-56
2020/12/08 02:42:58;;;;;;;2.67;2.30;;;18.80;50.90;;;;;;5030732;28;20709;-56
2020/12/08 02:45:24;;;;;;;2.90;2.60;;;18.80;50.90;;;;;;5028805;28;20280;-55
2020/12/08 02:47:50;;;;;;;2.70;2.50;;;18.80;50.90;;;;;;5030928;28;20774;-56
2020/12/08 02:50:16;;;;;;;2.30;2.10;;;18.70;50.90;;;;;;5026069;28;20230;-55
2020/12/08 02:52:43;;;;;;;2.20;2.00;;;18.60;51.00;;;;;;5030644;28;20250;-56
2020/12/08 02:55:10;;;;;;;2.43;2.17;;;18.60;51.00;;;;;;5026640;28;20548;-55
2020/12/08 02:57:36;;;;;;;2.63;2.30;;;18.60;51.10;;;;;;5028810;28;20278;-55
2020/12/08 03:00:04;;;;;;;2.50;2.30;;;18.60;51.20;;;;;;5025924;28;20288;-56
2020/12/08 03:02:30;;;;;;;2.70;1.90;;;18.50;51.10;;;;;;5025684;28;20227;-56
2020/12/08 03:04:58;;;;;;;2.73;2.47;;;18.60;51.20;;;;;;5023604;28;20242;-55
2020/12/08 03:07:25;;;;;;;2.67;2.47;;;18.50;51.20;;;;;;5027274;28;20222;-57
2020/12/08 03:09:51;;;;;;;2.90;2.50;;;18.50;51.20;;;;;;5029408;28;20230;-56
2020/12/08 03:12:17;;;;;;;2.37;2.17;;;18.50;51.30;;;;;;5023746;28;20230;-61
2020/12/08 03:14:43;;;;;;;2.70;2.50;;;18.40;51.30;;;;;;5031570;28;20277;-55
2020/12/08 03:17:10;;;;;;;3.23;2.40;;;18.40;51.30;;;;;;5026196;28;20226;-54
2020/12/08 03:19:37;;;;;;;3.43;2.20;;;18.40;51.40;;;;;;5029552;28;20846;-54
2020/12/08 03:22:05;;;;;;;2.77;2.40;;;18.40;51.50;;;;;;5026746;28;20235;-54
2020/12/08 03:24:31;;;;;;;2.60;2.10;;;18.40;51.50;;;;;;5029575;28;20649;-55
2020/12/08 03:26:58;;;;;;;3.33;2.23;;;18.40;51.50;;;;;;5025189;28;20231;-54
2020/12/08 03:29:24;;;;;;;2.47;2.23;;;18.30;51.50;;;;;;5029621;28;20709;-56
2020/12/08 03:31:50;;;;;;;2.57;2.20;;;18.30;51.50;;;;;;5026795;28;20238;-56
2020/12/08 03:34:17;;;;;;;2.47;2.20;;;18.30;51.60;;;;;;5028245;28;20281;-55
2020/12/08 03:36:43;;;;;;;2.50;2.30;;;18.20;51.50;;;;;;5022559;28;20686;-55
2020/12/08 03:39:09;;;;;;;2.63;2.20;;;18.20;51.60;;;;;;5026890;28;20229;-54
2020/12/08 03:41:35;;;;;;;3.60;2.30;;;18.20;51.60;;;;;;5023903;28;21787;-56
2020/12/08 03:44:01;;;;;;;3.07;2.67;;;18.20;51.70;;;;;;5030610;28;20231;-56
2020/12/08 03:46:27;;;;;;;2.93;2.67;;;18.20;51.70;;;;;;5030144;28;20726;-55
2020/12/08 03:48:54;;;;;;;3.77;2.60;;;18.20;51.70;;;;;;5025522;28;20285;-54
2020/12/08 03:51:22;;;;;;;3.53;2.67;;;18.10;51.70;;;;;;5030047;28;20268;-54
2020/12/08 03:53:48;;;;;;;2.67;2.40;;;18.10;51.80;;;;;;5024735;28;20304;-56
2020/12/08 03:56:20;;;;;;;2.60;2.40;;;18.10;51.80;;;;;;5030800;28;20691;-56
2020/12/08 03:58:46;;;;;;;3.03;2.50;;;18.10;51.80;;;;;;5023529;28;20223;-55
2020/12/08 04:01:18;;;;;;;2.53;2.30;;;18.00;51.80;;;;;;5029166;28;20268;-56
2020/12/08 04:03:46;;;;;;;2.67;2.37;;;18.10;51.90;;;;;;5023774;28;20231;-56
2020/12/08 04:06:21;;;;;;;2.60;2.40;;;18.00;51.90;;;;;;5029150;28;20236;-56
2020/12/08 04:08:47;;;;;;;4.47;2.53;;;18.00;52.00;;;;;;5024532;28;20230;-56
2020/12/08 04:11:15;;;;;;;2.57;2.27;;;18.00;52.00;;;;;;5030177;28;20234;-56
2020/12/08 04:13:42;;;;;;;14.30;2.73;;;17.90;52.00;;;;;;5019768;28;20223;-56
2020/12/08 04:16:14;;;;;;;15.17;2.30;;;18.00;52.50;;;;;;5023639;28;20231;-57
2020/12/08 04:18:41;;;;;;;4.97;2.47;;;18.40;51.90;;;;;;5020720;28;20629;-56
2020/12/08 04:21:07;;;;;;;3.33;2.00;;;19.40;50.60;;;;;;5027478;28;20511;-56
2020/12/08 04:23:34;;;;;;;2.70;1.83;;;20.00;49.40;;;;;;5025236;28;20725;-55
2020/12/08 04:26:00;;;;;;;2.17;1.93;;;20.50;48.30;;;;;;5028618;28;20242;-56
2020/12/08 04:28:27;;;;;;;2.20;1.80;;;21.00;47.60;;;;;;5021183;28;20235;-58
2020/12/08 04:30:53;;;;;;;2.13;1.93;;;21.30;47.00;;;;;;5027975;28;20229;-58
2020/12/08 04:33:19;;;;;;;4.93;1.97;;;21.70;46.30;;;;;;5029360;28;20226;-56
2020/12/08 04:35:45;;;;;;;5.13;2.03;;;21.90;45.80;;;;;;5022722;28;20235;-55
2020/12/08 04:38:12;;;;;;;3.70;1.87;;;22.20;45.60;;;;;;5027870;28;20230;-55
2020/12/08 04:40:38;;;;;;;3.20;1.80;;;22.40;45.20;;;;;;5019607;28;20733;-56
2020/12/08 04:43:05;;;;;;;2.23;2.03;;;22.60;44.80;;;;;;5028130;28;21005;-55
2020/12/08 04:45:32;;;;;;;1.93;1.67;;;23.00;44.10;;;;;;5018607;28;20219;-55
2020/12/08 04:48:07;;;;;;;1.80;1.70;;;23.20;43.70;;;;;;5027256;28;20242;-56
2020/12/08 04:50:34;;;;;;;2.00;1.80;;;23.40;43.60;;;;;;5017624;28;20231;-56
2020/12/08 04:53:02;;;;;;;2.10;1.90;;;23.50;43.40;;;;;;5027256;28;20229;-56
2020/12/08 04:55:28;;;;;;;2.53;1.87;;;23.70;43.30;;;;;;5020513;28;20239;-55
2020/12/08 04:57:55;;;;;;;3.53;2.00;;;23.80;43.00;;;;;;5026375;28;20581;-56
2020/12/08 05:00:21;;;;;;;1.80;1.70;;;24.00;42.80;;;;;;5020357;28;20268;-57
2020/12/08 05:02:52;;;;;;;1.80;1.70;;;24.10;42.60;;;;;;5027312;28;20226;-59
2020/12/08 05:05:20;;;;;;;2.00;1.80;;;24.30;43.10;;;;;;5019694;28;20392;-58
2020/12/08 05:07:47;;;;;;;3.50;2.30;;;24.40;42.10;;;;;;5026571;28;20601;-58
2020/12/08 05:10:14;;;;;;;1.50;1.40;;;24.60;41.90;;;;;;5022933;28;20234;-59
2020/12/08 05:12:40;;;;;;;2.30;2.10;;;24.60;41.80;;;;;;5027206;28;20284;-57
2020/12/08 05:15:15;;;;;;;1.90;1.70;;;24.70;41.70;;;;;;5026831;28;20233;-58
2020/12/08 05:17:43;;;;;;;2.97;1.80;;;24.80;41.60;;;;;;5013628;28;20285;-57
2020/12/08 05:20:13;;;;;;;2.60;1.80;;;24.90;41.60;;;;;;5018089;28;20223;-57
2020/12/08 05:22:52;;;;;;;3.67;1.80;;;25.00;41.40;;;;;;5010983;28;20223;-56
2020/12/08 05:25:18;;;;;;;3.30;1.80;;;25.10;42.00;;;;;;5027950;28;20293;-57
2020/12/08 05:27:49;;;;;;;2.73;2.23;;;25.30;41.10;;;;;;5017645;28;20234;-57
2020/12/08 05:30:15;;;;;;;2.07;1.90;;;25.30;41.00;;;;;;5024020;28;20230;-56
2020/12/08 05:32:43;;;;;;;2.00;1.83;;;25.40;40.90;;;;;;5015541;28;20797;-58
2020/12/08 05:35:12;;;;;;;2.23;2.10;;;25.50;40.90;;;;;;5021956;28;20226;-58
2020/12/08 05:37:40;;;;;;;1.80;1.70;;;25.70;40.80;;;;;;5010796;28;20274;-56
2020/12/08 05:40:09;;;;;;;1.90;1.70;;;25.80;40.50;;;;;;5024784;28;20231;-56
2020/12/08 05:42:38;;;;;;;1.93;1.73;;;25.80;40.60;;;;;;5017872;28;20234;-58
2020/12/08 05:45:10;;;;;;;1.60;1.43;;;25.90;40.40;;;;;;5027465;28;20589;-55
2020/12/08 05:47:51;;;;;;;2.33;1.97;;;26.10;40.10;;;;;;5007102;28;21993;-55
2020/12/08 05:50:19;;;;;;;3.53;3.27;;;26.10;40.20;;;;;;5012248;28;20937;-56
2020/12/08 05:52:48;;;;;;;2.63;2.43;;;25.00;37.50;;;;;;4999933;28;20889;-56
2020/12/08 05:55:20;;;;;;;4.07;2.60;;;23.60;40.80;;;;;;5003860;28;20235;-55
2020/12/08 05:57:47;;;;;;;3.40;3.07;;;22.70;42.60;;;;;;5006104;28;20293;-55
2020/12/08 06:00:27;;;;;;;3.50;3.20;;;22.20;43.70;;;;;;5024600;28;20238;-56
2020/12/08 06:02:54;;;;;;;3.60;3.00;;;21.80;44.50;;;;;;5015419;28;20686;-54
2020/12/08 06:05:31;;;;;;;4.00;3.27;;;21.50;45.00;;;;;;5027757;28;20241;-55
2020/12/08 06:07:58;;;;;;;3.37;3.03;;;21.30;45.50;;;;;;5017340;28;20273;-55
2020/12/08 06:10:25;;;;;;;4.27;3.80;;;21.20;45.80;;;;;;5024678;28;20729;-57
2020/12/08 06:13:00;;;;;;;3.63;2.90;;;21.00;45.90;;;;;;5017348;28;20223;-57
2020/12/08 06:15:40;;;;;;;4.87;3.20;;;21.00;46.10;;;;;;5023667;28;20249;-56
2020/12/08 06:18:08;;;;;;;4.33;2.80;;;20.80;46.40;;;;;;5017628;28;20953;-56
2020/12/08 06:20:38;;;;;;;3.47;2.90;;;20.70;46.80;;;;;;5021629;28;20244;-56
2020/12/08 06:23:06;;;;;;;4.03;2.70;;;20.50;47.10;;;;;;5011260;28;20235;-55
2020/12/08 06:25:33;;;;;;;6.07;2.73;;;20.50;47.70;;;;;;5024335;28;20226;-55
2020/12/08 06:28:01;;;;;;;3.50;3.20;;;20.50;48.30;;;;;;5023719;28;20243;-58
2020/12/08 06:30:27;;;;;;;4.97;3.03;;;20.60;47.70;;;;;;5018015;28;20226;-56
2020/12/08 06:32:59;;;;;;;3.27;2.70;;;21.00;47.00;;;;;;5023795;28;20223;-55
2020/12/08 06:35:31;;;;;;;3.00;2.70;;;21.20;46.70;;;;;;5019924;28;20608;-56
2020/12/08 06:38:14;;;;;;;3.53;2.90;;;21.40;46.30;;;;;;5022227;28;20934;-54
2020/12/08 06:40:50;;;;;;;3.00;2.80;;;21.60;45.90;;;;;;5016670;28;20230;-57
2020/12/08 06:43:16;;;;;;;2.83;2.60;;;21.70;46.40;;;;;;5027468;28;20229;-56
2020/12/08 06:45:43;;;;;;;4.60;3.00;;;21.90;45.60;;;;;;5021709;28;20771;-55
2020/12/08 06:48:18;;;;;;;4.30;2.47;;;22.00;45.20;;;;;;5027703;28;20218;-56
2020/12/08 06:50:44;;;;;;;3.43;2.73;;;22.10;45.90;;;;;;5018136;28;20867;-56
2020/12/08 06:53:11;;;;;;;4.50;2.87;;;22.20;44.90;;;;;;5029671;28;20230;-57
2020/12/08 06:55:48;;;;;;;6.83;3.07;;;22.30;45.30;;;;;;5020768;28;20654;-57
2020/12/08 06:58:18;;;;;;;2.87;2.57;;;22.30;44.90;;;;;;5026909;28;20570;-57
2020/12/08 07:00:45;;;;;;;3.60;2.87;;;22.30;44.70;;;;;;5015757;28;20233;-58
2020/12/08 07:03:15;;;;;;;4.43;2.67;;;22.30;44.60;;;;;;5004958;28;20225;-58
2020/12/08 07:05:43;;;;;;;3.00;2.57;;;22.30;44.50;;;;;;4999387;28;20223;-57
2020/12/08 07:08:15;;;;;;;3.27;2.63;;;22.40;44.50;;;;;;5004966;28;20250;-57
2020/12/08 07:10:42;;;;;;;4.03;2.57;;;22.40;44.40;;;;;;4999524;28;20240;-58
2020/12/08 07:13:16;;;;;;;3.87;2.87;;;22.40;44.30;;;;;;5025366;28;20222;-57
2020/12/08 07:15:48;;;;;;;3.93;2.50;;;22.40;44.40;;;;;;5014765;28;20302;-57
2020/12/08 07:18:14;;;;;;;6.57;2.33;;;22.50;44.40;;;;;;5027728;28;20215;-58
2020/12/08 07:20:46;;;;;;;4.33;2.60;;;22.40;44.30;;;;;;5022660;28;20210;-61
2020/12/08 07:23:15;;;;;;;5.67;2.77;;;22.50;44.90;;;;;;5028343;28;20827;-61
2020/12/08 07:25:50;;;;;;;7.17;2.87;;;22.90;45.30;;;;;;5027139;28;20206;-58
2020/12/08 07:28:16;;;;;;;3.37;2.10;;;23.20;44.70;;;;;;5010141;28;20594;-61
2020/12/08 07:30:50;;;;;;;2.87;2.47;;;23.30;44.40;;;;;;5013663;28;20225;-59
2020/12/08 07:33:17;;;;;;;4.47;2.30;;;23.50;44.70;;;;;;5021629;28;20231;-57
2020/12/08 07:35:50;;;;;;;4.93;2.60;;;23.60;43.90;;;;;;5016283;28;20230;-58
2020/12/08 07:38:16;;;;;;;4.50;2.23;;;23.70;43.50;;;;;;5000922;28;20850;-56
2020/12/08 07:40:42;;;;;;;2.60;2.40;;;23.70;43.30;;;;;;5010806;28;21142;-59
2020/12/08 07:43:09;;;;;;;4.00;2.50;;;23.80;43.00;;;;;;5000632;28;20230;-59
2020/12/08 07:45:42;;;;;;;2.40;2.20;;;23.90;42.90;;;;;;5007474;28;20284;-62
2020/12/08 07:48:19;;;;;;;97.17;15.50;;;23.90;42.70;;;;;;5016439;28;20235;-59
2020/12/08 07:50:45;;;;;;;74.73;12.60;;;23.80;43.10;;;;;;5006806;28;20231;-59
2020/12/08 07:53:13;;;;;;;62.60;12.83;;;23.90;43.30;;;;;;5018562;28;20274;-60
2020/12/08 07:55:41;;;;;;;46.93;12.03;;;24.10;42.70;;;;;;5025910;28;20601;-58
2020/12/08 07:58:08;;;;;;;47.27;11.80;;;24.30;42.80;;;;;;5024683;28;20227;-59
2020/12/08 08:00:35;;;;;;;39.90;10.43;;;24.30;42.40;;;;;;5032625;28;20753;-58
2020/12/08 08:03:01;;;;;;;26.80;8.97;;;24.40;41.90;;;;;;5022732;28;20866;-59
2020/12/08 08:05:28;;;;;;;31.03;8.50;;;24.50;42.10;;;;;;5030733;28;20234;-59
2020/12/08 08:07:55;;;;;;;24.63;8.30;;;24.60;41.70;;;;;;5015412;28;20243;-59
2020/12/08 08:10:21;;;;;;;17.70;7.07;;;24.70;41.60;;;;;;5009339;28;20341;-59
2020/12/08 08:12:47;;;;;;;18.90;7.27;;;24.60;41.90;;;;;;5005015;28;20835;-58
2020/12/08 08:15:14;;;;;;;15.60;6.90;;;24.70;41.40;;;;;;5005022;28;20231;-59
2020/12/08 08:17:40;;;;;;;18.90;6.70;;;24.70;41.50;;;;;;5020920;28;20709;-62
2020/12/08 08:20:11;;;;;;;11.70;6.03;;;24.70;41.30;;;;;;5012160;28;20680;-60
2020/12/08 08:22:37;;;;;;;13.77;5.63;;;24.70;41.50;;;;;;5006770;28;20223;-60
2020/12/08 08:25:04;;;;;;;9.77;5.07;;;24.70;41.20;;;;;;5000844;28;20427;-61
2020/12/08 08:27:30;;;;;;;10.63;5.33;;;24.80;41.10;;;;;;5008560;28;20226;-60
2020/12/08 08:29:56;;;;;;;9.33;5.23;;;24.90;41.00;;;;;;5002480;28;20227;-60
2020/12/08 08:32:22;;;;;;;8.67;4.77;;;24.90;40.90;;;;;;5008624;28;20223;-60
2020/12/08 08:34:49;;;;;;;9.33;4.77;;;24.90;40.80;;;;;;5004431;28;20819;-60
2020/12/08 08:37:15;;;;;;;12.10;4.53;;;24.90;40.70;;;;;;5008396;28;20223;-60
2020/12/08 08:39:41;;;;;;;7.50;4.30;;;25.00;40.90;;;;;;5003022;28;20234;-60
2020/12/08 08:42:07;;;;;;;7.87;4.47;;;25.00;40.60;;;;;;5009121;28;20790;-59
2020/12/08 08:44:33;;;;;;;6.33;4.43;;;25.00;40.60;;;;;;5007526;28;20227;-63
2020/12/08 08:47:00;;;;;;;11.03;3.83;;;25.10;40.30;;;;;;5028336;28;20226;-59
2020/12/08 08:49:26;;;;;;;7.90;4.07;;;25.10;40.30;;;;;;5007630;28;20239;-60
2020/12/08 08:51:52;;;;;;;5.87;3.93;;;25.20;40.30;;;;;;5006641;28;20212;-61
2020/12/08 08:54:19;;;;;;;6.83;4.33;;;24.70;39.80;;;;;;5001005;28;20234;-61
2020/12/08 08:56:45;;;;;;;4.80;3.67;;;24.20;40.90;;;;;;5003194;28;20231;-61
2020/12/08 08:59:12;;;;;;;8.97;3.67;;;24.00;41.40;;;;;;5009574;28;20238;-58
2020/12/08 09:01:38;;;;;;;6.97;3.97;;;24.30;41.80;;;;;;5004793;28;20243;-60
2020/12/08 09:04:05;;;;;;;4.30;3.70;;;24.90;41.30;;;;;;5005125;28;20230;-59
2020/12/08 09:06:31;;;;;;;5.43;3.60;;;25.20;41.00;;;;;;5004165;28;20302;-58
2020/12/08 09:08:59;;;;;;;4.17;3.30;;;25.30;40.80;;;;;;5008390;28;20308;-58
2020/12/08 09:11:27;;;;;;;5.53;3.30;;;25.60;40.60;;;;;;5004192;28;20226;-58
2020/12/08 09:13:54;;;;;;;3.57;3.10;;;25.60;40.60;;;;;;5025127;28;20694;-59
2020/12/08 09:16:24;;;;;;;5.37;2.90;;;25.70;40.50;;;;;;5020950;28;20223;-58
2020/12/08 09:18:50;;;;;;;5.77;3.50;;;25.80;40.40;;;;;;5027817;28;20773;-59
2020/12/08 09:21:17;;;;;;;4.87;3.00;;;25.90;40.30;;;;;;5021729;28;20223;-59
2020/12/08 09:23:44;;;;;;;5.20;3.20;;;25.90;40.10;;;;;;5027288;28;20222;-58
2020/12/08 09:26:10;;;;;;;4.07;2.93;;;26.10;40.10;;;;;;5018985;28;20226;-58
2020/12/08 09:28:37;;;;;;;6.37;3.03;;;26.20;39.90;;;;;;5024975;28;20663;-56
2020/12/08 09:31:03;;;;;;;3.77;2.93;;;26.10;40.30;;;;;;5015164;28;20218;-58
2020/12/08 09:33:30;;;;;;;7.50;3.10;;;25.60;42.00;;;;;;5025769;28;20890;-59
2020/12/08 09:35:56;;;;;;;6.10;3.20;;;25.20;42.80;;;;;;5023475;28;20222;-57
2020/12/08 09:38:22;;;;;;;3.47;3.17;;;24.90;43.20;;;;;;5018422;28;20884;-59
2020/12/08 09:40:49;;;;;;;3.40;2.83;;;24.70;43.60;;;;;;5014922;28;20229;-60
2020/12/08 09:43:15;;;;;;;4.57;3.03;;;24.60;42.70;;;;;;5002696;28;20235;-59
2020/12/08 09:45:41;;;;;;;4.03;3.13;;;24.50;43.10;;;;;;5015424;28;20239;-58
2020/12/08 09:48:07;;;;;;;3.97;3.20;;;24.30;44.20;;;;;;5011347;28;20218;-58
2020/12/08 09:50:34;;;;;;;4.37;3.00;;;24.30;44.10;;;;;;5026041;28;20242;-59
2020/12/08 09:53:00;;;;;;;4.00;3.20;;;24.20;43.70;;;;;;5019593;28;20263;-58
2020/12/08 09:55:26;;;;;;;3.10;2.77;;;24.20;43.70;;;;;;5024799;28;20237;-58
2020/12/08 09:57:52;;;;;;;5.57;3.43;;;24.10;43.70;;;;;;5019334;28;20322;-59
2020/12/08 10:00:19;;;;;;;10.07;3.37;;;24.00;44.40;;;;;;5026048;28;20753;-56
2020/12/08 10:02:45;;;;;;;4.37;3.03;;;24.00;44.90;;;;;;5020271;28;20226;-56
2020/12/08 10:05:12;;;;;;;4.23;3.10;;;23.90;45.10;;;;;;5024785;28;20599;-60
2020/12/08 10:07:39;;;;;;;3.97;2.90;;;23.90;44.70;;;;;;5006930;28;20269;-58
2020/12/08 10:10:06;;;;;;;3.67;2.90;;;23.80;44.90;;;;;;5025618;28;20242;-58
2020/12/08 10:12:32;;;;;;;4.37;3.30;;;23.80;45.10;;;;;;5039080;28;20234;-56
2020/12/08 10:14:58;;;;;;;4.30;2.80;;;23.70;44.70;;;;;;5018731;28;20242;-56
2020/12/08 10:17:25;;;;;;;4.33;3.13;;;23.70;45.00;;;;;;5024299;28;20223;-60
2020/12/08 10:19:51;;;;;;;4.37;3.27;;;23.70;44.90;;;;;;5003225;28;20224;-58
2020/12/08 10:22:18;;;;;;;3.40;2.90;;;23.60;44.60;;;;;;5009610;28;20849;-59
2020/12/08 10:24:49;;;;;;;4.63;2.83;;;23.60;44.60;;;;;;5003265;28;20734;-59
2020/12/08 10:27:15;;;;;;;3.33;3.03;;;23.60;44.80;;;;;;5010751;28;20232;-61
2020/12/08 10:29:42;;;;;;;5.20;2.67;;;23.60;44.60;;;;;;5008056;28;20223;-58
2020/12/08 10:32:08;;;;;;;3.30;3.00;;;23.50;44.30;;;;;;5013152;28;20241;-58
2020/12/08 10:34:34;;;;;;;5.20;3.00;;;23.50;44.60;;;;;;5014748;28;20231;-56
2020/12/08 10:37:00;;;;;;;3.57;3.27;;;23.50;44.50;;;;;;5027913;28;20227;-57
2020/12/08 10:39:27;;;;;;;3.53;2.83;;;23.50;44.80;;;;;;5027670;28;20269;-57
2020/12/08 10:41:56;;;;;;;2.83;2.63;;;23.40;44.60;;;;;;5027495;28;20227;-55
2020/12/08 10:44:23;;;;;;;3.17;2.87;;;23.40;44.80;;;;;;5013114;28;20305;-57
2020/12/08 10:46:51;;;;;;;3.57;3.07;;;23.40;44.90;;;;;;5009082;28;20974;-56
2020/12/08 10:49:19;;;;;;;3.13;2.83;;;23.40;45.40;;;;;;5018786;28;20633;-58
2020/12/08 10:51:45;;;;;;;4.00;2.90;;;23.30;45.50;;;;;;5025855;28;20526;-56
2020/12/08 10:54:13;;;;;;;5.93;3.30;;;23.30;45.50;;;;;;5029776;28;20572;-60
2020/12/08 10:56:39;;;;;;;4.10;3.20;;;23.20;44.90;;;;;;5005088;28;20597;-59
2020/12/08 10:59:05;;;;;;;3.30;3.00;;;23.20;45.30;;;;;;5022234;28;20230;-57
2020/12/08 11:01:37;;;;;;;3.17;2.97;;;23.20;45.40;;;;;;5017838;28;20230;-58
2020/12/08 11:04:03;;;;;;;4.63;3.80;;;22.70;42.50;;;;;;5028518;28;20219;-57
2020/12/08 11:06:35;;;;;;;4.27;3.20;;;22.70;45.40;;;;;;5019482;28;20211;-60
2020/12/08 11:09:01;;;;;;;3.63;2.97;;;22.80;44.80;;;;;;5027828;28;20525;-58
2020/12/08 11:11:30;;;;;;;3.10;2.80;;;22.90;45.20;;;;;;5024341;28;20230;-58
2020/12/08 11:13:58;;;;;;;3.20;2.77;;;22.90;45.10;;;;;;5026520;28;20629;-57
2020/12/08 11:16:26;;;;;;;3.07;2.77;;;22.90;45.10;;;;;;5023111;28;20219;-59
2020/12/08 11:18:53;;;;;;;3.40;2.80;;;22.90;44.90;;;;;;5027553;28;20219;-57
2020/12/08 11:21:27;;;;;;;3.50;3.20;;;23.00;45.20;;;;;;5026972;28;20243;-57
2020/12/08 11:23:54;;;;;;;4.70;2.50;;;22.90;45.90;;;;;;5026317;28;20927;-60
2020/12/08 11:26:21;;;;;;;5.13;2.70;;;22.90;45.20;;;;;;5024706;28;20551;-59
2020/12/08 11:28:47;;;;;;;2.70;2.30;;;22.90;45.30;;;;;;5026692;28;20223;-58
2020/12/08 11:31:13;;;;;;;3.40;2.53;;;22.90;45.30;;;;;;5023123;28;20227;-58
2020/12/08 11:33:45;;;;;;;4.17;2.50;;;22.90;44.90;;;;;;5029166;28;20222;-60
2020/12/08 11:36:18;;;;;;;7.50;2.73;;;22.90;45.10;;;;;;5028589;28;20227;-58
2020/12/08 11:38:44;;;;;;;2.47;2.20;;;22.90;45.20;;;;;;5028810;28;20233;-59
2020/12/08 11:41:11;;;;;;;2.67;2.47;;;22.90;45.10;;;;;;5029127;28;20230;-59
2020/12/08 11:43:37;;;;;;;4.00;2.60;;;22.90;45.60;;;;;;5023781;28;20686;-59
2020/12/08 11:46:12;;;;;;;3.03;2.73;;;22.80;44.90;;;;;;5029466;28;20242;-59
2020/12/08 11:48:40;;;;;;;4.17;2.47;;;22.80;46.00;;;;;;5020996;28;21062;-57
2020/12/08 11:51:06;;;;;;;3.40;2.80;;;22.80;45.80;;;;;;5028973;28;20242;-58
2020/12/08 11:53:33;;;;;;;4.97;2.63;;;22.80;45.90;;;;;;5018722;28;20235;-57
2020/12/08 11:56:35;;;;;;;4.93;2.83;;;22.70;45.50;;;;;;5028052;28;20234;-58
2020/12/08 11:59:01;;;;;;;4.50;2.37;;;22.80;45.20;;;;;;5023481;28;20222;-57
2020/12/08 12:01:28;;;;;;;5.47;2.60;;;22.70;45.10;;;;;;5029109;28;20229;-58
2020/12/08 12:03:54;;;;;;;2.27;2.10;;;22.70;45.50;;;;;;5022576;28;20248;-59
2020/12/08 12:06:21;;;;;;;2.90;2.63;;;22.70;45.70;;;;;;5026553;28;20231;-57
2020/12/08 12:08:47;;;;;;;2.60;2.40;;;22.70;45.20;;;;;;5020309;28;20227;-57
2020/12/08 12:11:13;;;;;;;3.50;3.10;;;22.70;45.30;;;;;;5028819;28;20743;-59
2020/12/08 12:13:39;;;;;;;4.57;2.53;;;22.50;43.20;;;;;;5020710;28;20215;-59
2020/12/08 12:16:05;;;;;;;3.07;2.60;;;22.10;45.60;;;;;;5024439;28;20234;-58
2020/12/08 12:18:32;;;;;;;4.73;2.57;;;22.30;45.20;;;;;;5018638;28;20231;-57
2020/12/08 12:20:58;;;;;;;2.27;2.07;;;22.30;45.30;;;;;;5026402;28;20222;-58
2020/12/08 12:23:25;;;;;;;6.67;2.57;;;22.40;45.60;;;;;;5018924;28;20229;-59
2020/12/08 12:25:51;;;;;;;4.27;2.43;;;22.50;45.50;;;;;;5024611;28;20238;-56
2020/12/08 12:28:17;;;;;;;2.97;2.30;;;22.50;45.50;;;;;;5018747;28;20672;-58
2020/12/08 12:30:43;;;;;;;2.97;2.40;;;22.50;45.30;;;;;;5026620;28;20231;-57
2020/12/08 12:33:10;;;;;;;2.20;2.00;;;22.50;46.60;;;;;;5026869;28;20230;-58
2020/12/08 12:35:36;;;;;;;4.80;2.20;;;22.60;45.70;;;;;;5018852;28;20227;-59
2020/12/08 12:38:03;;;;;;;5.03;2.57;;;22.60;45.60;;;;;;5027266;28;20233;-58
2020/12/08 12:40:29;;;;;;;3.43;2.20;;;22.60;45.50;;;;;;5016899;28;20235;-58
2020/12/08 12:42:55;;;;;;;2.17;2.00;;;22.80;44.80;;;;;;5019109;28;20285;-58
2020/12/08 12:45:21;;;;;;;1.70;1.60;;;23.10;44.40;;;;;;5009494;28;20243;-58
2020/12/08 12:47:47;;;;;;;8.40;1.90;;;23.40;43.70;;;;;;5013419;28;20712;-57